Cannon Air Force Base Clovis US
ICAO: KCVS
IATA: CVS
Category: Large
Scheduled Services: No

Elevation: 4295 ft
TransAlt. 18000 ft.

Airport Communications:
APP:125.5
ATIS:119.1
CLNC DEL:120.2
DEP:125.5
GND:121.9
PMSV METRO:34.46
COMD POST:38.13
PTD:139.6
TWR:120.4

KCVS Zoom In..

If you have problems with the map follow the link
https://www.worldairports.se/pages/airport.php?
ICAO=KCVS

Runways:

(A) RW 04 length 10003 ft width 150 ft
ILS 108.50 / hdg 35

(B) RW 13 length 8196 ft width 150 ft
ILS 110.35 / hdg 125

(C) RW 22 length 10003 ft width 150 ft
ILS 109.70 / hdg 215

(D) RW 31 length 8196 ft width 150 ft
ILS 108.30 / hdg 305

Location; KCVS
Day. 22 / Time. 16.02 Zulu
* Altimeter: 29.92
* Temperature: 02° c. 35.6°f.
* Wind from: 140° Speed 09 kn.
Dewpoint: -01° c.
Visibility: 10 Statute Miles.
Clouds: Overcast 600 ft.

KCVS 221602Z AUTO 14009KT 10SM OVC006 02/M01 A2992 RMK AO2 CIG 005 RWY22 CIG 005 RWY31 SLP126 $


Wind From 140°
Speed 09 kn.

 
 
jpsmedia.com for Web Design worldairports.se 2019   terms of use